Time,TemperatureF,DewpointF,PressureIn,WindDirection,WindDirectionDegrees,WindSpeedMPH,WindSpeedGustMPH,Humidity,HourlyPrecipIn,Conditions,Clouds,dailyrainin,SolarRadiationWatts/m^2,SoftwareType,DateUTC
2013-07-13 00:05:00,62.4,49.0,29.93,West,261,0.0,1.0,63,0.00,,,0.00,0,weatherlink.com 1.10,2013-07-13 07:05:00,
2013-07-13 00:20:00,61.9,50.0,29.93,West,261,0.0,1.0,65,0.00,,,0.00,0,weatherlink.com 1.10,2013-07-13 07:20:00,
2013-07-13 00:35:00,61.4,50.0,29.93,West,261,0.0,1.0,67,0.00,,,0.00,0,weatherlink.com 1.10,2013-07-13 07:35:00,
2013-07-13 00:50:00,61.0,50.0,29.93,West,261,0.0,1.0,67,0.00,,,0.00,0,weatherlink.com 1.10,2013-07-13 07:50:00,
2013-07-13 01:05:00,60.5,50.0,29.93,West,261,0.0,2.0,69,0.00,,,0.00,0,weatherlink.com 1.10,2013-07-13 08:05:00,
2013-07-13 01:20:00,59.9,50.0,29.93,West,261,0.0,1.0,71,0.00,,,0.00,0,weatherlink.com 1.10,2013-07-13 08:20:00,
2013-07-13 01:35:00,59.4,50.0,29.93,West,261,0.0,0.0,72,0.00,,,0.00,0,weatherlink.com 1.10,2013-07-13 08:35:00,
2013-07-13 01:50:00,58.8,51.0,29.93,West,261,0.0,1.0,74,0.00,,,0.00,0,weatherlink.com 1.10,2013-07-13 08:50:00,
2013-07-13 02:05:00,58.2,50.0,29.93,West,261,0.0,0.0,74,0.00,,,0.00,0,weatherlink.com 1.10,2013-07-13 09:05:00,
2013-07-13 02:20:00,58.0,50.0,29.93,West,261,0.0,0.0,74,0.00,,,0.00,0,weatherlink.com 1.10,2013-07-13 09:20:00,
2013-07-13 02:35:00,57.5,50.0,29.93,West,261,0.0,0.0,75,0.00,,,0.00,0,weatherlink.com 1.10,2013-07-13 09:35:00,
2013-07-13 02:50:00,57.3,50.0,29.93,West,261,0.0,0.0,76,0.00,,,0.00,0,weatherlink.com 1.10,2013-07-13 09:50:00,
2013-07-13 03:05:00,56.9,50.0,29.93,West,261,0.0,0.0,78,0.00,,,0.00,0,weatherlink.com 1.10,2013-07-13 10:05:00,
2013-07-13 03:20:00,56.5,50.0,29.93,West,261,0.0,0.0,80,0.00,,,0.00,0,weatherlink.com 1.10,2013-07-13 10:20:00,
2013-07-13 03:35:00,56.4,51.0,29.93,West,261,0.0,0.0,81,0.00,,,0.00,0,weatherlink.com 1.10,2013-07-13 10:35:00,
2013-07-13 03:50:00,56.1,51.0,29.93,West,261,0.0,0.0,82,0.00,,,0.00,0,weatherlink.com 1.10,2013-07-13 10:50:00,
2013-07-13 04:05:00,55.7,51.0,29.93,West,261,0.0,0.0,83,0.00,,,0.00,0,weatherlink.com 1.10,2013-07-13 11:05:00,
2013-07-13 04:20:00,55.3,51.0,29.94,West,261,0.0,0.0,84,0.00,,,0.00,0,weatherlink.com 1.10,2013-07-13 11:20:00,
2013-07-13 04:35:00,55.0,51.0,29.93,West,261,0.0,0.0,86,0.00,,,0.00,0,weatherlink.com 1.10,2013-07-13 11:35:00,
2013-07-13 04:50:00,54.8,51.0,29.93,West,261,0.0,0.0,86,0.00,,,0.00,0,weatherlink.com 1.10,2013-07-13 11:50:00,
2013-07-13 05:05:00,54.7,51.0,29.93,West,261,0.0,0.0,87,0.00,,,0.00,0,weatherlink.com 1.10,2013-07-13 12:05:00,
2013-07-13 05:20:00,54.5,50.0,29.93,West,261,0.0,0.0,86,0.00,,,0.00,0,weatherlink.com 1.10,2013-07-13 12:20:00,
2013-07-13 05:35:00,54.5,51.0,29.95,West,261,0.0,0.0,88,0.00,,,0.00,0,weatherlink.com 1.10,2013-07-13 12:35:00,
2013-07-13 05:50:00,54.6,51.0,29.95,West,261,0.0,0.0,88,0.00,,,0.00,0,weatherlink.com 1.10,2013-07-13 12:50:00,
2013-07-13 06:05:00,54.4,51.0,29.95,West,261,0.0,0.0,88,0.00,,,0.00,5,weatherlink.com 1.10,2013-07-13 13:05:00,
2013-07-13 06:20:00,54.3,51.0,29.95,West,261,0.0,0.0,89,0.00,,,0.00,11,weatherlink.com 1.10,2013-07-13 13:20:00,
2013-07-13 06:35:00,54.4,52.0,29.95,West,261,0.0,0.0,90,0.00,,,0.00,16,weatherlink.com 1.10,2013-07-13 13:35:00,
2013-07-13 06:51:00,54.9,52.0,29.96,West,261,0.0,0.0,89,0.00,,,0.00,19,weatherlink.com 1.10,2013-07-13 13:51:00,
2013-07-13 07:06:00,55.5,52.0,29.96,West,261,0.0,1.0,88,0.00,,,0.00,23,weatherlink.com 1.10,2013-07-13 14:06:00,
2013-07-13 07:21:00,56.4,52.0,29.96,West,261,0.0,1.0,86,0.00,,,0.00,25,weatherlink.com 1.10,2013-07-13 14:21:00,
2013-07-13 07:36:00,57.5,53.0,29.96,West,261,0.0,1.0,84,0.00,,,0.00,28,weatherlink.com 1.10,2013-07-13 14:36:00,
2013-07-13 07:51:00,58.8,53.0,29.97,West,261,0.0,2.0,81,0.00,,,0.00,30,weatherlink.com 1.10,2013-07-13 14:51:00,
2013-07-13 08:06:00,60.1,53.0,29.97,West,260,1.0,4.0,78,0.00,,,0.00,33,weatherlink.com 1.10,2013-07-13 15:06:00,
2013-07-13 08:21:00,60.9,53.0,29.97,West,260,0.0,4.0,76,0.00,,,0.00,37,weatherlink.com 1.10,2013-07-13 15:21:00,
2013-07-13 08:36:00,62.0,53.0,29.97,West,270,1.0,5.0,73,0.00,,,0.00,230,weatherlink.com 1.10,2013-07-13 15:36:00,
2013-07-13 08:51:00,63.4,54.0,29.98,West,270,1.0,3.0,72,0.00,,,0.00,44,weatherlink.com 1.10,2013-07-13 15:51:00,
2013-07-13 09:06:00,64.7,54.0,29.98,West,270,2.0,3.0,68,0.00,,,0.00,46,weatherlink.com 1.10,2013-07-13 16:06:00,
2013-07-13 09:21:00,65.9,54.0,29.98,West,270,0.0,3.0,66,0.00,,,0.00,306,weatherlink.com 1.10,2013-07-13 16:21:00,
2013-07-13 09:36:00,67.9,55.0,29.97,West,271,0.0,3.0,63,0.00,,,0.00,636,weatherlink.com 1.10,2013-07-13 16:36:00,
2013-07-13 09:51:00,70.1,54.0,29.97,West,271,0.0,4.0,57,0.00,,,0.00,677,weatherlink.com 1.10,2013-07-13 16:51:00,
2013-07-13 10:06:00,71.8,54.0,29.97,SSW,196,0.0,5.0,53,0.00,,,0.00,722,weatherlink.com 1.10,2013-07-13 17:06:00,
2013-07-13 10:21:00,74.2,55.0,29.96,West,267,5.0,5.0,51,0.00,,,0.00,756,weatherlink.com 1.10,2013-07-13 17:21:00,
2013-07-13 10:36:00,75.1,54.0,29.96,West,277,1.0,4.0,48,0.00,,,0.00,793,weatherlink.com 1.10,2013-07-13 17:36:00,
2013-07-13 10:51:00,75.9,54.0,29.96,WSW,248,0.0,7.0,46,0.00,,,0.00,823,weatherlink.com 1.10,2013-07-13 17:51:00,
2013-07-13 11:06:00,78.1,54.0,29.96,WSW,254,5.0,6.0,43,0.00,,,0.00,853,weatherlink.com 1.10,2013-07-13 18:06:00,
2013-07-13 11:21:00,79.9,53.0,29.96,WSW,250,1.0,5.0,40,0.00,,,0.00,881,weatherlink.com 1.10,2013-07-13 18:21:00,
2013-07-13 11:37:00,81.8,51.0,29.96,SW,236,0.0,5.0,34,0.00,,,0.00,909,weatherlink.com 1.10,2013-07-13 18:37:00,
2013-07-13 11:52:00,83.1,49.0,29.96,SSW,204,2.0,7.0,30,0.00,,,0.00,928,weatherlink.com 1.10,2013-07-13 18:52:00,
2013-07-13 12:07:00,84.1,50.0,29.96,West,259,4.0,7.0,31,0.00,,,0.00,942,weatherlink.com 1.10,2013-07-13 19:07:00,
2013-07-13 12:22:00,84.7,50.0,29.96,SW,231,4.0,6.0,30,0.00,,,0.00,951,weatherlink.com 1.10,2013-07-13 19:22:00,
2013-07-13 12:37:00,85.9,51.0,29.96,West,277,0.0,5.0,30,0.00,,,0.00,962,weatherlink.com 1.10,2013-07-13 19:37:00,
2013-07-13 12:52:00,86.0,50.0,29.96,WSW,251,2.0,7.0,29,0.00,,,0.00,965,weatherlink.com 1.10,2013-07-13 19:52:00,
2013-07-13 13:08:00,86.1,51.0,29.95,West,275,0.0,8.0,30,0.00,,,0.00,963,weatherlink.com 1.10,2013-07-13 20:08:00,
2013-07-13 13:22:00,87.0,52.0,29.95,West,275,1.0,7.0,30,0.00,,,0.00,969,weatherlink.com 1.10,2013-07-13 20:22:00,
2013-07-13 13:37:00,88.0,50.0,29.95,West,271,3.0,7.0,27,0.00,,,0.00,962,weatherlink.com 1.10,2013-07-13 20:37:00,
2013-07-13 13:52:00,88.6,47.0,29.95,SW,233,2.0,9.0,24,0.00,,,0.00,954,weatherlink.com 1.10,2013-07-13 20:52:00,
2013-07-13 14:07:00,89.3,50.0,29.95,WSW,252,3.0,8.0,26,0.00,,,0.00,932,weatherlink.com 1.10,2013-07-13 21:07:00,
2013-07-13 14:22:00,91.0,50.0,29.94,WSW,257,3.0,4.0,24,0.00,,,0.00,918,weatherlink.com 1.10,2013-07-13 21:22:00,
2013-07-13 14:37:00,90.8,49.0,29.94,WNW,284,0.0,9.0,24,0.00,,,0.00,900,weatherlink.com 1.10,2013-07-13 21:37:00,
2013-07-13 14:52:00,90.6,49.0,29.94,West,271,1.0,7.0,24,0.00,,,0.00,877,weatherlink.com 1.10,2013-07-13 21:52:00,
2013-07-13 15:07:00,90.7,49.0,29.94,West,260,0.0,10.0,24,0.00,,,0.00,846,weatherlink.com 1.10,2013-07-13 22:07:00,
2013-07-13 15:22:00,91.9,48.0,29.93,WNW,286,1.0,9.0,22,0.00,,,0.00,823,weatherlink.com 1.10,2013-07-13 22:22:00,
2013-07-13 15:37:00,91.7,49.0,29.93,WNW,286,1.0,11.0,23,0.00,,,0.00,791,weatherlink.com 1.10,2013-07-13 22:37:00,
2013-07-13 15:52:00,91.8,48.0,29.93,WSW,255,5.0,9.0,22,0.00,,,0.00,756,weatherlink.com 1.10,2013-07-13 22:52:00,
2013-07-13 16:07:00,92.2,49.0,29.92,West,281,8.0,10.0,23,0.00,,,0.00,721,weatherlink.com 1.10,2013-07-13 23:07:00,
2013-07-13 16:22:00,90.6,48.0,29.92,West,268,7.0,11.0,23,0.00,,,0.00,682,weatherlink.com 1.10,2013-07-13 23:22:00,
2013-07-13 16:37:00,90.5,49.0,29.92,WSW,250,2.0,11.0,24,0.00,,,0.00,638,weatherlink.com 1.10,2013-07-13 23:37:00,
2013-07-13 16:52:00,89.5,47.0,29.92,West,266,9.0,16.0,23,0.00,,,0.00,596,weatherlink.com 1.10,2013-07-13 23:52:00,
2013-07-13 17:07:00,89.0,45.0,29.91,WSW,255,8.0,14.0,22,0.00,,,0.00,555,weatherlink.com 1.10,2013-07-14 00:07:00,
2013-07-13 17:22:00,88.6,45.0,29.91,West,266,4.0,11.0,22,0.00,,,0.00,513,weatherlink.com 1.10,2013-07-14 00:22:00,
2013-07-13 17:37:00,88.4,45.0,29.91,West,264,1.0,12.0,22,0.00,,,0.00,468,weatherlink.com 1.10,2013-07-14 00:37:00,
2013-07-13 17:52:00,88.0,43.0,29.91,WSW,257,9.0,10.0,21,0.00,,,0.00,422,weatherlink.com 1.10,2013-07-14 00:52:00,
2013-07-13 18:07:00,87.8,44.0,29.91,WSW,257,8.0,10.0,22,0.00,,,0.00,367,weatherlink.com 1.10,2013-07-14 01:07:00,
2013-07-13 18:22:00,87.1,45.0,29.91,SW,236,7.0,11.0,23,0.00,,,0.00,323,weatherlink.com 1.10,2013-07-14 01:22:00,
2013-07-13 18:37:00,86.2,45.0,29.91,WSW,257,6.0,11.0,24,0.00,,,0.00,274,weatherlink.com 1.10,2013-07-14 01:37:00,
2013-07-13 18:52:00,85.4,47.0,29.91,NW,304,7.0,10.0,26,0.00,,,0.00,227,weatherlink.com 1.10,2013-07-14 01:52:00,
2013-07-13 19:07:00,83.7,45.0,29.92,WSW,250,4.0,10.0,26,0.00,,,0.00,181,weatherlink.com 1.10,2013-07-14 02:07:00,
2013-07-13 19:22:00,82.3,45.0,29.92,WNW,291,3.0,8.0,27,0.00,,,0.00,134,weatherlink.com 1.10,2013-07-14 02:22:00,
2013-07-13 19:38:00,81.1,45.0,29.92,WNW,294,7.0,9.0,28,0.00,,,0.00,83,weatherlink.com 1.10,2013-07-14 02:38:00,
2013-07-13 19:53:00,79.3,44.0,29.93,WSW,255,3.0,8.0,29,0.00,,,0.00,42,weatherlink.com 1.10,2013-07-14 02:53:00,
2013-07-13 20:08:00,77.9,44.0,29.93,WNW,285,5.0,9.0,30,0.00,,,0.00,18,weatherlink.com 1.10,2013-07-14 03:08:00,
2013-07-13 20:23:00,75.3,45.0,29.94,WSW,254,5.0,9.0,34,0.00,,,0.00,7,weatherlink.com 1.10,2013-07-14 03:23:00,
2013-07-13 20:38:00,73.2,47.0,29.95,WSW,246,2.0,7.0,39,0.00,,,0.00,0,weatherlink.com 1.10,2013-07-14 03:38:00,
2013-07-13 20:53:00,71.7,47.0,29.95,West,263,4.0,7.0,41,0.00,,,0.00,0,weatherlink.com 1.10,2013-07-14 03:53:00,
2013-07-13 21:08:00,70.6,46.0,29.95,West,263,4.0,6.0,42,0.00,,,0.00,0,weatherlink.com 1.10,2013-07-14 04:08:00,
2013-07-13 21:23:00,69.7,46.0,29.96,West,272,0.0,3.0,43,0.00,,,0.00,0,weatherlink.com 1.10,2013-07-14 04:23:00,
2013-07-13 21:38:00,69.0,46.0,29.96,West,272,0.0,1.0,44,0.00,,,0.00,0,weatherlink.com 1.10,2013-07-14 04:38:00,
2013-07-13 21:53:00,68.5,46.0,29.97,West,272,1.0,4.0,45,0.00,,,0.00,0,weatherlink.com 1.10,2013-07-14 04:53:00,
2013-07-13 22:08:00,68.2,45.0,29.98,West,273,3.0,5.0,44,0.00,,,0.00,0,weatherlink.com 1.10,2013-07-14 05:08:00,
2013-07-13 22:23:00,67.4,46.0,29.98,West,269,2.0,5.0,47,0.00,,,0.00,0,weatherlink.com 1.10,2013-07-14 05:23:00,
2013-07-13 22:38:00,66.6,46.0,29.98,West,269,0.0,2.0,48,0.00,,,0.00,0,weatherlink.com 1.10,2013-07-14 05:38:00,
2013-07-13 22:53:00,65.8,46.0,29.98,West,269,2.0,4.0,50,0.00,,,0.00,0,weatherlink.com 1.10,2013-07-14 05:53:00,
2013-07-13 23:08:00,65.0,46.0,29.98,West,269,3.0,4.0,51,0.00,,,0.00,0,weatherlink.com 1.10,2013-07-14 06:08:00,
2013-07-13 23:23:00,64.7,46.0,29.98,West,269,1.0,2.0,52,0.00,,,0.00,0,weatherlink.com 1.10,2013-07-14 06:23:00,
2013-07-13 23:38:00,64.5,46.0,29.98,West,269,0.0,3.0,51,0.00,,,0.00,0,weatherlink.com 1.10,2013-07-14 06:38:00,
2013-07-13 23:53:00,64.1,45.0,29.98,West,269,1.0,4.0,50,0.00,,,0.00,0,weatherlink.com 1.10,2013-07-14 06:53:00,